createdAt,value
2023-03-24T00:01:48.261Z,10.17
2023-03-24T00:04:16.948Z,10.15
2023-03-24T00:06:49.151Z,10.15
2023-03-24T00:09:17.862Z,10.17
2023-03-24T00:11:47.596Z,10.17
2023-03-24T00:14:15.891Z,10.22
2023-03-24T00:16:44.088Z,10.17
2023-03-24T00:19:13.607Z,10.19
2023-03-24T00:21:42.979Z,10.18
2023-03-24T00:24:13.489Z,10.27
2023-03-24T00:26:42.254Z,10.25
2023-03-24T00:29:12.683Z,10.25
2023-03-24T00:31:41.282Z,10.19
2023-03-24T00:34:10.383Z,10.20
2023-03-24T00:36:38.650Z,10.20
2023-03-24T00:39:07.190Z,10.22
2023-03-24T00:41:36.744Z,10.24
2023-03-24T00:44:05.938Z,10.21
2023-03-24T00:46:35.306Z,10.17
2023-03-24T00:49:06.241Z,10.23
2023-03-24T00:51:35.625Z,10.26
2023-03-24T00:54:03.884Z,10.28
2023-03-24T00:56:33.071Z,10.29
2023-03-24T00:59:06.067Z,10.33
2023-03-24T01:01:36.693Z,10.31
2023-03-24T01:04:08.029Z,10.25
2023-03-24T01:06:37.680Z,10.25
2023-03-24T01:09:06.894Z,10.35
2023-03-24T01:11:37.726Z,10.31
2023-03-24T01:14:08.610Z,10.40
2023-03-24T01:16:37.219Z,10.33
2023-03-24T01:19:06.632Z,10.39
2023-03-24T01:21:35.311Z,10.39
2023-03-24T01:24:05.261Z,10.37
2023-03-24T01:26:33.846Z,10.38
2023-03-24T01:29:02.276Z,10.37
2023-03-24T01:31:31.998Z,10.41
2023-03-24T01:34:00.228Z,10.42
2023-03-24T01:36:28.527Z,10.41
2023-03-24T01:38:58.716Z,10.39
2023-03-24T01:41:27.861Z,10.40
2023-03-24T01:43:56.081Z,10.40
2023-03-24T01:46:26.114Z,10.42
2023-03-24T01:48:58.898Z,10.44
2023-03-24T01:51:30.382Z,10.45
2023-03-24T01:54:01.179Z,10.49
2023-03-24T01:56:32.244Z,10.53
2023-03-24T01:59:02.491Z,10.54
2023-03-24T02:01:31.900Z,10.50
2023-03-24T02:04:04.844Z,10.52
2023-03-24T02:06:34.293Z,10.58
2023-03-24T02:09:16.796Z,10.56
2023-03-24T02:11:45.918Z,10.52
2023-03-24T02:14:14.351Z,10.46
2023-03-24T02:16:50.026Z,10.54
2023-03-24T02:19:38.920Z,10.59
2023-03-24T02:22:28.132Z,10.60
2023-03-24T02:25:21.613Z,10.57
2023-03-24T02:28:00.709Z,10.56
2023-03-24T02:30:40.296Z,10.56
2023-03-24T02:33:32.899Z,10.55
2023-03-24T02:36:25.197Z,10.55
2023-03-24T02:39:12.359Z,10.60
2023-03-24T02:41:43.070Z,10.56
2023-03-24T02:44:14.328Z,10.57
2023-03-24T02:46:46.129Z,10.49
2023-03-24T02:49:20.349Z,10.53
2023-03-24T02:51:52.661Z,10.52
2023-03-24T02:54:24.263Z,10.52
2023-03-24T02:56:55.957Z,10.60
2023-03-24T02:59:28.165Z,10.58
2023-03-24T03:02:09.201Z,10.62
2023-03-24T03:04:40.145Z,10.63
2023-03-24T03:07:11.520Z,10.62
2023-03-24T03:09:42.511Z,10.64
2023-03-24T03:12:13.612Z,10.62
2023-03-24T03:14:45.886Z,10.63
2023-03-24T03:17:17.296Z,10.65
2023-03-24T03:19:50.292Z,10.66
2023-03-24T03:22:19.745Z,10.69
2023-03-24T03:24:53.213Z,10.70
2023-03-24T03:27:27.153Z,10.74
2023-03-24T03:29:57.170Z,10.73
2023-03-24T03:32:29.172Z,10.71
2023-03-24T03:35:02.300Z,10.73
2023-03-24T03:37:34.114Z,10.76
2023-03-24T03:40:06.088Z,10.74
2023-03-24T03:42:36.488Z,10.86
2023-03-24T03:45:05.283Z,10.85
2023-03-24T03:47:34.563Z,10.91
2023-03-24T03:50:04.434Z,10.98
2023-03-24T03:52:32.839Z,11.09
2023-03-24T03:55:01.351Z,11.13
2023-03-24T03:57:29.759Z,11.18
2023-03-24T03:59:59.843Z,11.26
2023-03-24T04:02:34.734Z,11.26
2023-03-24T04:05:15.283Z,11.28
2023-03-24T04:07:48.962Z,11.27
2023-03-24T04:10:23.871Z,11.26
2023-03-24T04:13:00.980Z,11.18
2023-03-24T04:15:36.946Z,11.32
2023-03-24T04:18:15.818Z,11.32
2023-03-24T04:20:47.780Z,11.45
2023-03-24T04:23:26.717Z,11.42
2023-03-24T04:26:02.056Z,11.41
2023-03-24T04:28:34.722Z,11.36
2023-03-24T04:31:07.362Z,11.39
2023-03-24T04:33:41.312Z,11.36
2023-03-24T04:36:19.187Z,11.38
2023-03-24T04:38:50.591Z,11.42
2023-03-24T04:41:19.696Z,11.36
2023-03-24T04:43:48.977Z,11.31
2023-03-24T04:46:18.893Z,11.25
2023-03-24T04:48:48.146Z,11.27
2023-03-24T04:51:17.525Z,11.18
2023-03-24T04:53:46.702Z,11.26
2023-03-24T04:56:26.180Z,11.23
2023-03-24T04:58:54.802Z,11.18
2023-03-24T05:01:39.233Z,11.25
2023-03-24T05:04:08.316Z,11.19
2023-03-24T05:06:36.735Z,11.19
2023-03-24T05:09:05.579Z,11.21
2023-03-24T05:11:33.890Z,11.19
2023-03-24T05:14:02.278Z,11.22
2023-03-24T05:16:30.858Z,11.22
2023-03-24T05:19:01.874Z,11.13
2023-03-24T05:21:31.317Z,11.06
2023-03-24T05:24:01.362Z,11.11
2023-03-24T05:26:32.022Z,11.19
2023-03-24T05:29:03.163Z,10.85
2023-03-24T05:31:31.731Z,10.85
2023-03-24T05:34:01.487Z,10.77
2023-03-24T05:36:29.718Z,10.75
2023-03-24T05:38:58.056Z,10.63
2023-03-24T05:41:26.477Z,10.70
2023-03-24T05:43:55.226Z,10.60
2023-03-24T05:46:26.306Z,10.52
2023-03-24T05:48:54.861Z,10.59
2023-03-24T05:51:24.471Z,10.51
2023-03-24T05:53:53.011Z,10.45
2023-03-24T05:56:21.810Z,10.44
2023-03-24T05:58:51.335Z,10.48
2023-03-24T06:01:19.644Z,10.54
2023-03-24T06:03:49.544Z,10.51
2023-03-24T06:06:18.547Z,10.33
2023-03-24T06:08:48.454Z,10.36
2023-03-24T06:11:16.741Z,10.29
2023-03-24T06:13:44.984Z,10.33
2023-03-24T06:16:13.568Z,10.43
2023-03-24T06:18:42.753Z,10.52
2023-03-24T06:21:11.252Z,10.56
2023-03-24T06:23:39.690Z,10.78
2023-03-24T06:26:11.496Z,10.63
2023-03-24T06:28:42.225Z,10.54
2023-03-24T06:31:15.094Z,10.54
2023-03-24T06:33:44.368Z,10.49
2023-03-24T06:36:13.412Z,10.53
2023-03-24T06:38:42.145Z,10.46
2023-03-24T06:41:12.131Z,10.42
2023-03-24T06:43:40.613Z,10.39
2023-03-24T06:46:10.144Z,10.32
2023-03-24T06:48:39.753Z,10.31
2023-03-24T06:51:08.407Z,10.49
2023-03-24T06:53:37.788Z,10.57
2023-03-24T06:56:06.925Z,10.56
2023-03-24T06:58:36.711Z,10.57
2023-03-24T07:01:05.121Z,10.68
2023-03-24T07:03:33.649Z,10.84
2023-03-24T07:06:02.011Z,11.06
2023-03-24T07:08:38.070Z,11.27
2023-03-24T07:11:07.501Z,11.60
2023-03-24T07:13:37.194Z,12.40
2023-03-24T07:16:05.794Z,13.49
2023-03-24T07:18:34.313Z,14.52
2023-03-24T07:21:02.607Z,15.21
2023-03-24T07:23:32.524Z,15.88
2023-03-24T07:26:01.110Z,16.71
2023-03-24T07:28:29.396Z,17.61
2023-03-24T07:30:59.344Z,17.45
2023-03-24T07:33:27.802Z,19.11
2023-03-24T07:35:57.166Z,19.03
2023-03-24T07:38:25.575Z,19.24
2023-03-24T07:40:54.155Z,20.21
2023-03-24T07:43:22.896Z,20.33
2023-03-24T07:45:51.307Z,21.64
2023-03-24T07:48:21.211Z,21.28
2023-03-24T07:50:49.536Z,19.55
2023-03-24T07:53:19.965Z,20.84
2023-03-24T07:55:49.028Z,21.46
2023-03-24T07:58:17.897Z,20.97
2023-03-24T08:00:46.319Z,21.83
2023-03-24T08:03:15.630Z,21.09
2023-03-24T08:05:46.695Z,22.06
2023-03-24T08:08:15.711Z,18.63
2023-03-24T08:10:46.063Z,18.95
2023-03-24T08:13:14.569Z,18.14
2023-03-24T08:15:43.505Z,18.82
2023-03-24T08:18:11.791Z,18.00
2023-03-24T08:20:40.139Z,18.77
2023-03-24T08:23:09.976Z,18.96
2023-03-24T08:25:38.599Z,19.57
2023-03-24T08:28:07.453Z,19.28
2023-03-24T08:30:36.146Z,18.51
2023-03-24T08:33:04.981Z,20.44
2023-03-24T08:35:34.921Z,18.95
2023-03-24T08:38:06.564Z,18.99
2023-03-24T08:40:37.710Z,16.92
2023-03-24T08:43:08.401Z,15.60
2023-03-24T08:45:37.282Z,15.53
2023-03-24T08:48:07.020Z,17.03
2023-03-24T08:50:37.855Z,16.43
2023-03-24T08:53:06.468Z,16.42
2023-03-24T08:55:34.749Z,16.91
2023-03-24T08:58:04.429Z,16.54
2023-03-24T09:00:35.600Z,15.50
2023-03-24T09:03:04.120Z,17.32
2023-03-24T09:05:43.935Z,18.82
2023-03-24T09:08:13.526Z,19.93
2023-03-24T09:10:42.292Z,19.89
2023-03-24T09:13:12.235Z,18.89
2023-03-24T09:15:41.097Z,20.51
2023-03-24T09:18:09.453Z,22.15
2023-03-24T09:20:38.175Z,22.68
2023-03-24T09:23:06.814Z,24.16
2023-03-24T09:25:35.457Z,23.40
2023-03-24T09:28:04.017Z,24.23
2023-03-24T09:30:35.130Z,25.01
2023-03-24T09:33:03.865Z,22.25
2023-03-24T09:35:32.122Z,21.19
2023-03-24T09:38:00.636Z,19.82
2023-03-24T09:40:29.851Z,18.64
2023-03-24T09:43:01.040Z,17.96
2023-03-24T09:45:31.033Z,18.72
2023-03-24T09:48:03.385Z,18.39
2023-03-24T09:50:35.605Z,17.41
2023-03-24T09:53:08.270Z,17.11
2023-03-24T09:55:38.899Z,16.58
2023-03-24T09:58:08.304Z,17.41
2023-03-24T10:00:37.410Z,17.71
2023-03-24T10:03:14.950Z,18.01
2023-03-24T10:05:46.285Z,18.20
2023-03-24T10:08:17.885Z,18.71
2023-03-24T10:10:56.213Z,18.82
2023-03-24T10:13:29.451Z,16.46
2023-03-24T10:16:04.518Z,16.51
2023-03-24T10:18:39.327Z,15.19
2023-03-24T10:21:16.958Z,14.60
2023-03-24T10:23:51.249Z,15.79
2023-03-24T10:29:03.469Z,15.71
2023-03-24T10:31:33.840Z,14.75
2023-03-24T10:34:02.182Z,14.46
2023-03-24T10:36:30.972Z,14.65
2023-03-24T10:39:03.970Z,14.62
2023-03-24T10:41:42.177Z,14.23
2023-03-24T10:44:12.757Z,14.85
2023-03-24T10:46:45.833Z,15.23
2023-03-24T10:49:17.876Z,15.63
2023-03-24T10:51:47.661Z,15.42
2023-03-24T10:54:20.604Z,16.06
2023-03-24T10:56:50.472Z,16.75
2023-03-24T10:59:25.494Z,16.33
2023-03-24T11:01:58.703Z,15.97
2023-03-24T11:04:27.668Z,15.34
2023-03-24T11:07:02.109Z,15.66
2023-03-24T11:09:39.645Z,15.80
2023-03-24T11:12:21.014Z,15.10
2023-03-24T11:14:50.646Z,14.86
2023-03-24T11:17:21.652Z,14.85
2023-03-24T11:19:53.513Z,15.65
2023-03-24T11:22:22.440Z,15.73
2023-03-24T11:24:52.354Z,16.42
2023-03-24T11:27:20.938Z,16.21
2023-03-24T11:29:53.900Z,15.51
2023-03-24T11:32:27.056Z,14.86
2023-03-24T11:35:00.842Z,14.58
2023-03-24T11:37:34.049Z,14.82
2023-03-24T11:40:26.359Z,15.45
2023-03-24T11:42:56.272Z,19.75
2023-03-24T11:45:35.516Z,22.22
2023-03-24T11:48:07.771Z,22.27
2023-03-24T11:50:39.324Z,21.65
2023-03-24T11:53:11.651Z,20.95
2023-03-24T11:55:49.994Z,18.76
2023-03-24T11:58:27.744Z,18.96
2023-03-24T12:01:02.119Z,18.39
2023-03-24T12:03:54.678Z,18.04
2023-03-24T12:06:31.399Z,17.08
2023-03-24T12:09:07.211Z,15.62
2023-03-24T12:11:45.146Z,14.82
2023-03-24T12:14:16.793Z,15.46
2023-03-24T12:16:52.894Z,16.75
2023-03-24T12:19:30.610Z,19.03
2023-03-24T12:22:04.967Z,19.67
2023-03-24T12:24:39.680Z,21.24
2023-03-24T12:27:14.867Z,20.02
2023-03-24T12:29:55.399Z,17.31
2023-03-24T12:32:35.224Z,16.43
2023-03-24T12:35:17.884Z,14.91
2023-03-24T12:37:50.606Z,15.57
2023-03-24T12:40:34.474Z,16.06
2023-03-24T12:43:06.274Z,17.74
2023-03-24T12:45:41.125Z,18.73
2023-03-24T12:48:17.545Z,19.63
2023-03-24T12:50:51.324Z,21.61
2023-03-24T12:53:27.409Z,19.69
2023-03-24T12:55:58.580Z,22.12
2023-03-24T12:58:32.469Z,22.10
2023-03-24T13:01:04.860Z,23.11
2023-03-24T13:03:42.347Z,21.76
2023-03-24T13:06:17.575Z,18.74
2023-03-24T13:08:50.381Z,17.34
2023-03-24T13:11:32.317Z,16.42
2023-03-24T13:14:04.322Z,16.16
2023-03-24T13:16:35.471Z,16.06
2023-03-24T13:19:11.566Z,15.54
2023-03-24T13:21:40.016Z,15.15
2023-03-24T13:24:11.106Z,14.95
2023-03-24T13:26:41.574Z,14.56
2023-03-24T13:29:24.713Z,15.17
2023-03-24T13:31:55.789Z,15.55
2023-03-24T13:34:29.564Z,15.84
2023-03-24T13:37:00.577Z,15.93
2023-03-24T13:39:29.685Z,15.93
2023-03-24T13:41:58.754Z,15.34
2023-03-24T13:44:39.224Z,14.88
2023-03-24T13:47:10.980Z,14.41
2023-03-24T13:49:40.836Z,14.30
2023-03-24T13:52:22.664Z,14.31
2023-03-24T13:54:52.527Z,14.14
2023-03-24T13:57:23.495Z,14.00
2023-03-24T14:00:17.819Z,13.49
2023-03-24T14:02:49.536Z,12.69
2023-03-24T14:05:32.884Z,13.92
2023-03-24T14:08:11.678Z,15.05
2023-03-24T14:10:42.298Z,16.31
2023-03-24T14:13:31.567Z,16.89
2023-03-24T14:15:59.959Z,16.66
2023-03-24T14:18:42.005Z,16.03
2023-03-24T14:21:11.880Z,15.72
2023-03-24T14:23:41.406Z,15.76
2023-03-24T14:26:13.362Z,15.45
2023-03-24T14:28:42.549Z,14.90
2023-03-24T14:31:19.003Z,14.18
2023-03-24T14:34:02.501Z,13.76
2023-03-24T14:36:35.211Z,13.20
2023-03-24T14:39:20.503Z,12.72
2023-03-24T14:41:51.985Z,12.46
2023-03-24T14:44:35.301Z,12.06
2023-03-24T14:47:04.512Z,11.96
2023-03-24T14:49:33.550Z,13.11
2023-03-24T14:52:04.729Z,14.54
2023-03-24T14:54:55.370Z,15.05
2023-03-24T14:57:25.150Z,14.44
2023-03-24T14:59:56.675Z,13.73
2023-03-24T15:02:28.642Z,13.33
2023-03-24T15:05:15.436Z,13.06
2023-03-24T15:07:46.618Z,12.75
2023-03-24T15:10:16.290Z,12.43
2023-03-24T15:12:45.293Z,12.28
2023-03-24T15:15:18.131Z,11.82
2023-03-24T15:17:46.902Z,12.09
2023-03-24T15:20:23.072Z,12.17
2023-03-24T15:22:55.161Z,11.74
2023-03-24T15:25:28.230Z,11.38
2023-03-24T15:27:56.779Z,11.24
2023-03-24T15:30:25.309Z,10.97
2023-03-24T15:32:55.015Z,10.62
2023-03-24T15:35:24.090Z,10.67
2023-03-24T15:37:54.540Z,10.56
2023-03-24T15:40:33.613Z,10.62
2023-03-24T15:43:02.795Z,10.64
2023-03-24T15:45:31.988Z,10.80
2023-03-24T15:48:06.178Z,10.96
2023-03-24T15:50:36.100Z,10.98
2023-03-24T15:53:07.326Z,11.07
2023-03-24T15:55:37.024Z,11.22
2023-03-24T15:58:21.821Z,11.25
2023-03-24T16:00:53.117Z,11.07
2023-03-24T16:03:26.623Z,10.97
2023-03-24T16:05:56.421Z,10.85
2023-03-24T16:08:28.340Z,10.81
2023-03-24T16:10:58.562Z,10.75
2023-03-24T16:13:27.704Z,10.71
2023-03-24T16:15:57.473Z,10.67
2023-03-24T16:18:28.187Z,10.64
2023-03-24T16:20:56.449Z,10.69
2023-03-24T16:23:26.742Z,10.72
2023-03-24T16:25:56.401Z,10.72
2023-03-24T16:28:25.220Z,10.71
2023-03-24T16:30:57.816Z,10.69
2023-03-24T16:33:27.333Z,10.71
2023-03-24T16:35:55.616Z,10.68
2023-03-24T16:38:23.932Z,10.67
2023-03-24T16:40:53.593Z,10.65
2023-03-24T16:43:23.494Z,10.73
2023-03-24T16:45:51.897Z,10.85
2023-03-24T16:48:20.248Z,10.91
2023-03-24T16:50:51.851Z,10.95
2023-03-24T16:53:21.221Z,10.86
2023-03-24T16:55:49.605Z,10.88
2023-03-24T16:58:18.092Z,11.05
2023-03-24T17:00:49.231Z,10.99
2023-03-24T17:03:18.188Z,11.02
2023-03-24T17:05:48.392Z,10.85
2023-03-24T17:08:18.492Z,10.79
2023-03-24T17:10:48.842Z,10.60
2023-03-24T17:13:18.590Z,10.52
2023-03-24T17:15:48.645Z,10.51
2023-03-24T17:18:17.001Z,10.42
2023-03-24T17:20:45.285Z,10.44
2023-03-24T17:23:14.922Z,10.40
2023-03-24T17:25:43.126Z,10.30
2023-03-24T17:28:14.158Z,10.22
2023-03-24T17:30:42.697Z,10.17
2023-03-24T17:33:14.915Z,10.06
2023-03-24T17:35:45.162Z,9.99
2023-03-24T17:38:14.516Z,9.94
2023-03-24T17:40:43.036Z,9.87
2023-03-24T17:43:11.305Z,9.76
2023-03-24T17:45:40.628Z,9.70
2023-03-24T17:48:09.136Z,9.64
2023-03-24T17:50:38.728Z,9.62
2023-03-24T17:53:07.308Z,9.61
2023-03-24T17:55:35.635Z,9.63
2023-03-24T17:58:04.296Z,9.55
2023-03-24T18:00:32.834Z,9.47
2023-03-24T18:03:01.350Z,9.45
2023-03-24T18:05:30.448Z,9.44
2023-03-24T18:07:59.979Z,9.43
2023-03-24T18:10:28.415Z,9.37
2023-03-24T18:12:56.805Z,9.35
2023-03-24T18:15:25.983Z,9.41
2023-03-24T18:17:54.501Z,9.41
2023-03-24T18:20:23.054Z,9.31
2023-03-24T18:22:51.505Z,9.30
2023-03-24T18:25:21.158Z,9.32
2023-03-24T18:27:49.736Z,9.35
2023-03-24T18:30:18.184Z,9.39
2023-03-24T18:32:46.814Z,9.38
2023-03-24T18:35:17.136Z,9.39
2023-03-24T18:37:45.715Z,9.27
2023-03-24T18:40:15.526Z,9.39
2023-03-24T18:42:45.509Z,9.51
2023-03-24T18:45:17.416Z,9.40
2023-03-24T18:47:46.488Z,9.42
2023-03-24T18:50:15.224Z,9.40
2023-03-24T18:52:43.509Z,9.40
2023-03-24T18:55:12.387Z,9.32
2023-03-24T18:57:41.262Z,9.30
2023-03-24T19:00:15.397Z,9.42
2023-03-24T19:02:45.499Z,9.44
2023-03-24T19:05:15.272Z,9.49
2023-03-24T19:07:46.101Z,9.45
2023-03-24T19:10:14.397Z,9.44
2023-03-24T19:12:43.024Z,9.55
2023-03-24T19:15:14.531Z,9.63
2023-03-24T19:17:42.865Z,9.65
2023-03-24T19:20:12.194Z,9.65
2023-03-24T19:22:41.658Z,9.61
2023-03-24T19:25:10.246Z,9.60
2023-03-24T19:27:38.524Z,9.63
2023-03-24T19:30:08.479Z,9.62
2023-03-24T19:32:38.646Z,9.56
2023-03-24T19:35:07.208Z,9.50
2023-03-24T19:37:36.856Z,9.49
2023-03-24T19:40:08.696Z,9.61
2023-03-24T19:42:39.784Z,9.58
2023-03-24T19:45:11.008Z,9.67
2023-03-24T19:47:51.600Z,9.71
2023-03-24T19:50:19.977Z,9.71
2023-03-24T19:52:48.291Z,9.78
2023-03-24T19:55:16.709Z,9.79
2023-03-24T19:57:45.013Z,9.88
2023-03-24T20:00:14.515Z,9.90
2023-03-24T20:02:44.704Z,9.97
2023-03-24T20:05:14.546Z,10.01
2023-03-24T20:07:43.420Z,10.13
2023-03-24T20:10:11.747Z,10.17
2023-03-24T20:12:39.983Z,10.13
2023-03-24T20:15:11.694Z,10.08
2023-03-24T20:17:40.522Z,10.02
2023-03-24T20:20:11.489Z,10.02
2023-03-24T20:22:41.927Z,10.00
2023-03-24T20:25:10.987Z,9.97
2023-03-24T20:27:39.614Z,9.94
2023-03-24T20:30:09.451Z,9.92
2023-03-24T20:32:37.794Z,9.96
2023-03-24T20:35:07.398Z,9.97
2023-03-24T20:37:37.082Z,9.92
2023-03-24T20:40:06.351Z,9.91
2023-03-24T20:42:35.014Z,9.90
2023-03-24T20:45:03.776Z,9.87
2023-03-24T20:47:32.314Z,9.89
2023-03-24T20:50:01.148Z,9.90
2023-03-24T20:52:29.604Z,9.87
2023-03-24T20:55:01.124Z,9.83
2023-03-24T20:57:31.260Z,9.82
2023-03-24T20:59:59.552Z,9.84
2023-03-24T21:02:28.181Z,9.83
2023-03-24T21:04:56.747Z,9.71
2023-03-24T21:07:25.576Z,9.74
2023-03-24T21:09:54.171Z,9.68
2023-03-24T21:12:23.816Z,9.71
2023-03-24T21:14:52.371Z,9.69
2023-03-24T21:17:22.567Z,9.67
2023-03-24T21:19:54.618Z,9.67
2023-03-24T21:22:25.057Z,9.64
2023-03-24T21:24:54.373Z,9.64
2023-03-24T21:27:24.357Z,9.66
2023-03-24T21:29:53.562Z,9.65
2023-03-24T21:32:21.804Z,9.58
2023-03-24T21:34:50.294Z,9.57
2023-03-24T21:37:19.635Z,9.56
2023-03-24T21:39:47.874Z,9.50
2023-03-24T21:42:19.329Z,9.49
2023-03-24T21:44:54.393Z,9.50
2023-03-24T21:47:29.365Z,9.52
2023-03-24T21:50:06.808Z,9.54
2023-03-24T21:52:43.184Z,9.43
2023-03-24T21:55:14.655Z,9.42
2023-03-24T21:57:43.331Z,9.48
2023-03-24T22:00:14.907Z,9.43
2023-03-24T22:02:45.557Z,9.37
2023-03-24T22:05:14.179Z,9.31
2023-03-24T22:07:42.713Z,9.29
2023-03-24T22:10:13.370Z,9.31
2023-03-24T22:12:43.044Z,9.33
2023-03-24T22:15:13.517Z,9.36
2023-03-24T22:17:41.925Z,9.34
2023-03-24T22:20:11.781Z,9.38
2023-03-24T22:22:41.158Z,9.34
2023-03-24T22:25:10.663Z,9.30
2023-03-24T22:27:39.303Z,9.30
2023-03-24T22:30:08.791Z,9.29
2023-03-24T22:32:38.892Z,9.30
2023-03-24T22:35:07.839Z,9.26
2023-03-24T22:37:36.372Z,9.28
2023-03-24T22:40:05.924Z,9.24
2023-03-24T22:42:34.395Z,9.38
2023-03-24T22:45:02.892Z,9.35
2023-03-24T22:47:31.342Z,9.37
2023-03-24T22:50:01.102Z,9.41
2023-03-24T22:52:29.467Z,9.44
2023-03-24T22:54:57.969Z,9.43
2023-03-24T22:57:26.398Z,9.50
2023-03-24T22:59:54.635Z,9.51
2023-03-24T23:02:24.736Z,9.53
2023-03-24T23:04:54.990Z,9.50
2023-03-24T23:07:28.009Z,9.51
2023-03-24T23:09:59.210Z,9.42
2023-03-24T23:12:27.979Z,9.31
2023-03-24T23:14:56.942Z,9.24
2023-03-24T23:17:25.708Z,9.15
2023-03-24T23:19:54.489Z,8.96
2023-03-24T23:22:22.916Z,8.81
2023-03-24T23:25:00.359Z,8.68
2023-03-24T23:27:34.028Z,8.59
2023-03-24T23:30:02.871Z,8.54
2023-03-24T23:32:32.907Z,8.53
2023-03-24T23:35:02.907Z,8.56
2023-03-24T23:37:32.090Z,8.56
2023-03-24T23:40:09.357Z,8.59
2023-03-24T23:42:37.823Z,8.63
2023-03-24T23:45:06.686Z,8.68
2023-03-24T23:47:36.699Z,8.72
2023-03-24T23:50:06.279Z,8.72
2023-03-24T23:52:34.712Z,8.79
2023-03-24T23:55:04.859Z,8.78
2023-03-24T23:57:34.068Z,8.80
